createdAt,value
2023-02-15T00:00:05.339Z,2.20
2023-02-15T00:01:05.369Z,2.30
2023-02-15T00:02:05.362Z,1.50
2023-02-15T00:03:05.396Z,1.50
2023-02-15T00:04:05.311Z,1.60
2023-02-15T00:05:05.298Z,2.30
2023-02-15T00:06:05.274Z,2.00
2023-02-15T00:07:05.257Z,2.30
2023-02-15T00:08:05.249Z,1.90
2023-02-15T00:09:05.344Z,1.30
2023-02-15T00:10:05.234Z,1.40
2023-02-15T00:11:05.222Z,2.00
2023-02-15T00:12:05.204Z,2.20
2023-02-15T00:13:05.204Z,1.90
2023-02-15T00:14:05.188Z,2.00
2023-02-15T00:15:05.183Z,1.30
2023-02-15T00:16:05.241Z,1.60
2023-02-15T00:17:05.168Z,2.00
2023-02-15T00:18:05.141Z,1.40
2023-02-15T00:19:05.173Z,2.20
2023-02-15T00:20:05.126Z,1.30
2023-02-15T00:21:05.128Z,1.70
2023-02-15T00:22:05.094Z,1.80
2023-02-15T00:23:05.098Z,2.50
2023-02-15T00:24:05.147Z,2.40
2023-02-15T00:25:05.116Z,1.60
2023-02-15T00:26:05.234Z,2.30
2023-02-15T00:27:05.058Z,2.10
2023-02-15T00:28:05.055Z,1.40
2023-02-15T00:29:05.056Z,1.50
2023-02-15T00:30:05.090Z,1.80
2023-02-15T00:31:05.209Z,2.00
2023-02-15T00:32:05.026Z,1.70
2023-02-15T00:33:04.990Z,1.10
2023-02-15T00:34:04.995Z,2.00
2023-02-15T00:35:05.049Z,1.50
2023-02-15T00:36:04.948Z,2.50
2023-02-15T00:37:04.960Z,2.20
2023-02-15T00:38:04.945Z,2.00
2023-02-15T00:39:04.929Z,1.60
2023-02-15T00:40:04.926Z,2.30
2023-02-15T00:41:04.913Z,2.10
2023-02-15T00:42:05.049Z,2.20
2023-02-15T00:43:04.890Z,1.80
2023-02-15T00:44:04.876Z,1.40
2023-02-15T00:45:04.907Z,1.10
2023-02-15T00:46:05.101Z,2.60
2023-02-15T00:47:04.844Z,2.20
2023-02-15T00:48:04.834Z,1.30
2023-02-15T00:49:04.823Z,2.00
2023-02-15T00:50:04.831Z,1.60
2023-02-15T00:51:04.836Z,1.90
2023-02-15T00:52:04.795Z,1.70
2023-02-15T00:53:04.797Z,1.50
2023-02-15T00:54:04.762Z,1.90
2023-02-15T00:55:04.774Z,2.10
2023-02-15T00:56:04.957Z,1.60
2023-02-15T00:57:04.758Z,1.90
2023-02-15T00:58:04.753Z,1.80
2023-02-15T00:59:04.731Z,2.20
2023-02-15T01:00:04.738Z,2.40
2023-02-15T01:01:04.892Z,1.60
2023-02-15T01:02:04.697Z,1.90
2023-02-15T01:03:04.693Z,2.30
2023-02-15T01:04:04.695Z,1.40
2023-02-15T01:05:04.672Z,1.50
2023-02-15T01:06:04.927Z,1.90
2023-02-15T01:07:04.654Z,2.30
2023-02-15T01:08:04.637Z,1.40
2023-02-15T01:09:04.637Z,2.10
2023-02-15T01:10:04.614Z,1.80
2023-02-15T01:11:04.622Z,1.60
2023-02-15T01:12:04.605Z,1.80
2023-02-15T01:13:04.590Z,1.90
2023-02-15T01:14:04.564Z,2.10
2023-02-15T01:15:04.580Z,2.20
2023-02-15T01:16:05.240Z,1.70
2023-02-15T01:17:04.563Z,1.80
2023-02-15T01:18:04.532Z,1.60
2023-02-15T01:19:04.603Z,1.80
2023-02-15T01:20:04.520Z,2.00
2023-02-15T01:21:04.525Z,1.50
2023-02-15T01:22:04.496Z,1.90
2023-02-15T01:23:04.469Z,2.20
2023-02-15T01:24:04.514Z,2.20
2023-02-15T01:25:04.459Z,1.70
2023-02-15T01:26:04.563Z,2.20
2023-02-15T01:27:04.488Z,2.80
2023-02-15T01:28:04.422Z,1.40
2023-02-15T01:29:04.441Z,2.10
2023-02-15T01:30:04.434Z,2.50
2023-02-15T01:31:04.467Z,1.70
2023-02-15T01:32:04.564Z,2.20
2023-02-15T01:33:04.403Z,2.20
2023-02-15T01:34:04.361Z,2.40
2023-02-15T01:35:04.396Z,2.10
2023-02-15T01:36:04.420Z,3.10
2023-02-15T01:37:04.372Z,1.90
2023-02-15T01:38:04.319Z,2.00
2023-02-15T01:39:04.322Z,2.30
2023-02-15T01:40:04.306Z,2.20
2023-02-15T01:41:04.295Z,2.40
2023-02-15T01:42:04.301Z,2.30
2023-02-15T01:43:04.278Z,2.20
2023-02-15T01:44:04.277Z,2.70
2023-02-15T01:45:04.269Z,2.30
2023-02-15T01:46:04.578Z,2.50
2023-02-15T01:47:04.252Z,3.10
2023-02-15T01:48:04.247Z,1.70
2023-02-15T01:49:04.222Z,2.00
2023-02-15T01:50:04.208Z,2.80
2023-02-15T01:51:04.546Z,2.00
2023-02-15T01:52:04.210Z,1.80
2023-02-15T01:53:04.179Z,2.00
2023-02-15T01:54:04.142Z,1.80
2023-02-15T01:55:04.831Z,2.40
2023-02-15T01:56:04.237Z,2.10
2023-02-15T01:57:04.127Z,2.30
2023-02-15T01:58:04.141Z,1.30
2023-02-15T01:59:04.100Z,1.50
2023-02-15T02:00:04.120Z,1.80
2023-02-15T02:01:04.081Z,2.90
2023-02-15T02:02:04.093Z,1.80
2023-02-15T02:03:04.172Z,1.90
2023-02-15T02:04:04.060Z,2.40
2023-02-15T02:05:04.104Z,2.90
2023-02-15T02:06:04.056Z,2.00
2023-02-15T02:07:04.053Z,2.00
2023-02-15T02:08:04.009Z,3.10
2023-02-15T02:09:03.996Z,1.80
2023-02-15T02:10:04.022Z,2.70
2023-02-15T02:11:03.986Z,2.40
2023-02-15T02:12:03.980Z,1.90
2023-02-15T02:13:03.973Z,3.00
2023-02-15T02:14:03.979Z,2.40
2023-02-15T02:15:03.937Z,2.00
2023-02-15T02:16:04.327Z,2.50
2023-02-15T02:17:03.935Z,2.10
2023-02-15T02:18:03.925Z,2.00
2023-02-15T02:19:03.905Z,2.50
2023-02-15T02:20:03.916Z,2.30
2023-02-15T02:21:03.870Z,2.70
2023-02-15T02:22:03.910Z,3.00
2023-02-15T02:23:03.861Z,2.50
2023-02-15T02:24:03.886Z,1.50
2023-02-15T02:25:03.829Z,2.40
2023-02-15T02:26:04.059Z,2.00
2023-02-15T02:27:03.826Z,1.80
2023-02-15T02:28:03.816Z,2.40
2023-02-15T02:29:04.021Z,2.00
2023-02-15T02:30:03.850Z,2.40
2023-02-15T02:31:04.018Z,2.70
2023-02-15T02:32:03.861Z,2.10
2023-02-15T02:33:03.753Z,2.30
2023-02-15T02:34:03.758Z,2.40
2023-02-15T02:35:03.757Z,3.80
2023-02-15T02:36:03.926Z,1.60
2023-02-15T02:37:03.718Z,2.00
2023-02-15T02:38:03.722Z,3.10
2023-02-15T02:39:03.712Z,2.10
2023-02-15T02:40:03.750Z,3.10
2023-02-15T02:41:03.662Z,2.20
2023-02-15T02:42:03.686Z,2.60
2023-02-15T02:43:03.658Z,1.90
2023-02-15T02:44:03.650Z,2.70
2023-02-15T02:45:03.658Z,2.30
2023-02-15T02:46:03.984Z,2.00
2023-02-15T02:47:03.629Z,3.10
2023-02-15T02:48:03.607Z,2.20
2023-02-15T02:49:03.678Z,2.40
2023-02-15T02:50:03.631Z,3.00
2023-02-15T02:51:03.646Z,2.90
2023-02-15T02:52:03.561Z,2.70
2023-02-15T02:53:03.551Z,2.50
2023-02-15T02:54:03.549Z,2.30
2023-02-15T02:55:03.531Z,2.60
2023-02-15T02:56:03.982Z,1.80
2023-02-15T02:57:03.505Z,3.10
2023-02-15T02:58:03.551Z,2.20
2023-02-15T02:59:03.490Z,2.30
2023-02-15T03:00:03.494Z,1.90
2023-02-15T03:01:03.462Z,2.40
2023-02-15T03:02:03.587Z,2.60
2023-02-15T03:03:03.526Z,2.10
2023-02-15T03:04:03.450Z,2.90
2023-02-15T03:05:03.431Z,1.80
2023-02-15T03:06:03.698Z,2.20
2023-02-15T03:07:03.461Z,1.80
2023-02-15T03:08:03.424Z,2.00
2023-02-15T03:09:03.390Z,2.10
2023-02-15T03:10:03.469Z,2.00
2023-02-15T03:11:03.375Z,2.20
2023-02-15T03:12:03.357Z,2.40
2023-02-15T03:13:03.380Z,2.30
2023-02-15T03:14:03.358Z,1.90
2023-02-15T03:15:03.338Z,2.60
2023-02-15T03:16:03.650Z,2.10
2023-02-15T03:17:03.311Z,2.10
2023-02-15T03:18:03.341Z,1.90
2023-02-15T03:19:03.304Z,1.40
2023-02-15T03:20:03.284Z,2.20
2023-02-15T03:21:03.269Z,2.60
2023-02-15T03:22:03.272Z,3.40
2023-02-15T03:23:03.275Z,2.70
2023-02-15T03:24:03.311Z,1.90
2023-02-15T03:25:03.228Z,3.80
2023-02-15T03:26:03.602Z,2.40
2023-02-15T03:27:03.216Z,2.10
2023-02-15T03:28:03.219Z,2.20
2023-02-15T03:29:03.216Z,2.50
2023-02-15T03:30:03.244Z,2.80
2023-02-15T03:31:03.336Z,2.60
2023-02-15T03:32:03.310Z,2.90
2023-02-15T03:33:03.167Z,2.60
2023-02-15T03:34:03.166Z,3.10
2023-02-15T03:35:03.162Z,2.10
2023-02-15T03:36:03.414Z,1.70
2023-02-15T03:37:03.144Z,2.80
2023-02-15T03:38:03.130Z,2.80
2023-02-15T03:39:03.134Z,2.50
2023-02-15T03:40:03.085Z,2.20
2023-02-15T03:41:03.069Z,2.60
2023-02-15T03:42:03.087Z,3.60
2023-02-15T03:43:03.052Z,2.10
2023-02-15T03:44:03.048Z,2.90
2023-02-15T03:45:03.049Z,3.30
2023-02-15T03:46:03.388Z,2.40
2023-02-15T03:47:03.011Z,2.30
2023-02-15T03:48:03.030Z,3.10
2023-02-15T03:49:03.032Z,2.80
2023-02-15T03:50:03.029Z,2.70
2023-02-15T03:51:02.967Z,2.70
2023-02-15T03:52:02.961Z,2.60
2023-02-15T03:53:02.949Z,2.80
2023-02-15T03:54:02.962Z,3.20
2023-02-15T03:55:02.937Z,2.70
2023-02-15T03:56:03.341Z,2.30
2023-02-15T03:57:02.932Z,3.10
2023-02-15T03:58:02.923Z,2.60
2023-02-15T03:59:02.883Z,1.90
2023-02-15T04:00:02.896Z,2.70
2023-02-15T04:01:02.949Z,3.30
2023-02-15T04:02:02.878Z,2.50
2023-02-15T04:03:02.882Z,2.60
2023-02-15T04:04:02.849Z,4.00
2023-02-15T04:05:03.396Z,3.90
2023-02-15T04:06:03.156Z,2.40
2023-02-15T04:07:02.805Z,2.20
2023-02-15T04:08:02.821Z,2.90
2023-02-15T04:09:02.785Z,2.50
2023-02-15T04:10:02.815Z,2.00
2023-02-15T04:11:02.772Z,2.60
2023-02-15T04:12:02.754Z,2.30
2023-02-15T04:13:02.782Z,3.40
2023-02-15T04:14:02.741Z,2.50
2023-02-15T04:15:02.777Z,2.10
2023-02-15T04:16:03.220Z,1.80
2023-02-15T04:17:02.693Z,2.80
2023-02-15T04:18:02.697Z,2.50
2023-02-15T04:19:02.690Z,2.50
2023-02-15T04:20:02.711Z,2.90
2023-02-15T04:21:02.681Z,2.90
2023-02-15T04:22:02.662Z,2.90
2023-02-15T04:23:02.656Z,2.90
2023-02-15T04:24:02.678Z,2.40
2023-02-15T04:25:02.616Z,2.80
2023-02-15T04:26:02.880Z,2.30
2023-02-15T04:27:02.613Z,2.90
2023-02-15T04:28:02.589Z,2.20
2023-02-15T04:29:02.576Z,2.50
2023-02-15T04:30:02.694Z,3.00
2023-02-15T04:31:02.617Z,3.40
2023-02-15T04:32:02.636Z,2.90
2023-02-15T04:33:02.522Z,3.10
2023-02-15T04:34:02.556Z,1.90
2023-02-15T04:35:02.522Z,2.40
2023-02-15T04:36:02.882Z,3.30
2023-02-15T04:37:02.521Z,2.70
2023-02-15T04:38:02.485Z,2.50
2023-02-15T04:39:02.467Z,3.10
2023-02-15T04:40:02.470Z,3.30
2023-02-15T04:41:02.533Z,3.20
2023-02-15T04:42:02.450Z,3.30
2023-02-15T04:43:02.457Z,2.80
2023-02-15T04:44:02.421Z,2.00
2023-02-15T04:45:02.419Z,3.40
2023-02-15T04:46:02.872Z,3.70
2023-02-15T04:47:02.397Z,2.80
2023-02-15T04:48:02.386Z,2.40
2023-02-15T04:49:02.391Z,2.10
2023-02-15T04:50:02.372Z,3.40
2023-02-15T04:51:02.368Z,3.50
2023-02-15T04:52:02.335Z,2.30
2023-02-15T04:53:02.330Z,3.60
2023-02-15T04:54:02.360Z,3.10
2023-02-15T04:55:02.327Z,1.80
2023-02-15T04:56:02.630Z,2.90
2023-02-15T04:57:02.290Z,2.20
2023-02-15T04:58:02.299Z,2.20
2023-02-15T04:59:02.340Z,3.30
2023-02-15T05:00:02.289Z,2.70
2023-02-15T05:01:02.391Z,2.80
2023-02-15T05:02:02.252Z,4.30
2023-02-15T05:03:02.230Z,2.30
2023-02-15T05:04:02.261Z,3.20
2023-02-15T05:05:02.204Z,2.50
2023-02-15T05:06:03.219Z,3.20
2023-02-15T05:07:02.197Z,3.90
2023-02-15T05:08:02.172Z,3.70
2023-02-15T05:09:02.173Z,2.10
2023-02-15T05:10:02.195Z,3.10
2023-02-15T05:11:02.170Z,2.60
2023-02-15T05:12:02.145Z,2.90
2023-02-15T05:13:02.119Z,2.20
2023-02-15T05:14:02.133Z,3.20
2023-02-15T05:15:02.171Z,2.60
2023-02-15T05:16:02.427Z,2.40
2023-02-15T05:17:02.133Z,3.00
2023-02-15T05:18:02.144Z,2.10
2023-02-15T05:19:02.161Z,2.40
2023-02-15T05:20:02.058Z,2.40
2023-02-15T05:21:02.051Z,2.80
2023-02-15T05:22:02.071Z,2.70
2023-02-15T05:23:02.029Z,3.30
2023-02-15T05:24:02.056Z,2.50
2023-02-15T05:25:02.036Z,2.90
2023-02-15T05:26:02.232Z,2.80
2023-02-15T05:27:01.989Z,2.60
2023-02-15T05:28:03.828Z,1.70
2023-02-15T05:29:02.151Z,3.70
2023-02-15T05:30:02.147Z,2.70
2023-02-15T05:31:02.290Z,4.20
2023-02-15T05:32:02.107Z,2.90
2023-02-15T05:33:01.933Z,3.40
2023-02-15T05:34:01.938Z,3.20
2023-02-15T05:35:01.925Z,3.00
2023-02-15T05:36:02.623Z,2.60
2023-02-15T05:37:01.893Z,3.90
2023-02-15T05:38:01.904Z,2.90
2023-02-15T05:39:02.064Z,3.50
2023-02-15T05:40:01.866Z,2.70
2023-02-15T05:41:01.851Z,3.30
2023-02-15T05:42:01.904Z,3.30
2023-02-15T05:43:01.853Z,2.70
2023-02-15T05:44:01.818Z,2.30
2023-02-15T05:45:01.804Z,2.90
2023-02-15T05:46:02.218Z,4.50
2023-02-15T05:47:01.818Z,3.40
2023-02-15T05:48:01.783Z,2.80
2023-02-15T05:49:01.761Z,3.00
2023-02-15T05:50:01.808Z,2.80
2023-02-15T05:51:01.752Z,2.70
2023-02-15T05:52:01.737Z,3.50
2023-02-15T05:53:01.750Z,3.20
2023-02-15T05:54:01.719Z,3.40
2023-02-15T05:55:01.707Z,3.40
2023-02-15T05:56:02.228Z,3.00
2023-02-15T05:57:01.686Z,3.50
2023-02-15T05:58:01.687Z,3.40
2023-02-15T05:59:01.713Z,2.60
2023-02-15T06:00:01.717Z,3.90
2023-02-15T06:01:01.639Z,3.50
2023-02-15T06:02:01.722Z,4.10
2023-02-15T06:03:01.639Z,3.60
2023-02-15T06:04:01.617Z,2.60
2023-02-15T06:05:01.631Z,3.30
2023-02-15T06:06:02.038Z,3.50
2023-02-15T06:07:01.618Z,3.80
2023-02-15T06:08:01.579Z,2.70
2023-02-15T06:09:01.577Z,3.20
2023-02-15T06:10:01.567Z,2.30
2023-02-15T06:11:01.565Z,3.20
2023-02-15T06:12:01.480Z,3.90
2023-02-15T06:13:01.552Z,2.90
2023-02-15T06:14:01.536Z,3.30
2023-02-15T06:15:01.591Z,3.70
2023-02-15T06:16:01.750Z,3.50
2023-02-15T06:17:01.476Z,3.20
2023-02-15T06:18:01.472Z,2.60
2023-02-15T06:19:01.453Z,3.60
2023-02-15T06:20:01.390Z,3.80
2023-02-15T06:21:01.397Z,3.10
2023-02-15T06:22:01.403Z,4.30
2023-02-15T06:23:01.422Z,3.00
2023-02-15T06:24:01.465Z,2.70
2023-02-15T06:25:01.359Z,2.90
2023-02-15T06:26:01.757Z,3.90
2023-02-15T06:27:01.341Z,3.30
2023-02-15T06:28:01.348Z,4.00
2023-02-15T06:29:01.305Z,3.30
2023-02-15T06:30:01.314Z,3.30
2023-02-15T06:31:01.405Z,2.80
2023-02-15T06:32:01.417Z,3.50
2023-02-15T06:33:01.280Z,3.90
2023-02-15T06:34:01.332Z,4.00
2023-02-15T06:35:01.253Z,3.30
2023-02-15T06:36:01.599Z,3.20
2023-02-15T06:37:01.346Z,4.00
2023-02-15T06:38:01.221Z,4.20
2023-02-15T06:39:01.327Z,2.70
2023-02-15T06:40:03.688Z,3.50
2023-02-15T06:41:01.199Z,4.90
2023-02-15T06:42:01.193Z,7.60
2023-02-15T06:43:01.262Z,5.60
2023-02-15T06:44:01.221Z,8.00
2023-02-15T06:45:01.354Z,9.40
2023-02-15T06:46:01.472Z,5.30
2023-02-15T06:47:01.168Z,6.10
2023-02-15T06:48:01.107Z,7.70
2023-02-15T06:49:01.135Z,6.50
2023-02-15T06:50:01.182Z,5.50
2023-02-15T06:51:01.139Z,4.60
2023-02-15T06:52:01.118Z,4.40
2023-02-15T06:53:01.108Z,3.40
2023-02-15T06:54:01.079Z,3.20
2023-02-15T06:55:01.131Z,4.90
2023-02-15T06:56:01.341Z,4.00
2023-02-15T06:57:01.027Z,4.40
2023-02-15T06:58:01.031Z,4.40
2023-02-15T06:59:01.058Z,3.20
2023-02-15T07:00:01.043Z,4.10
2023-02-15T07:01:01.021Z,4.00
2023-02-15T07:02:00.972Z,5.00
2023-02-15T07:03:01.019Z,4.50
2023-02-15T07:04:00.959Z,4.80
2023-02-15T07:05:01.055Z,2.60
2023-02-15T07:06:01.333Z,3.60
2023-02-15T07:07:00.960Z,4.20
2023-02-15T07:08:00.918Z,3.50
2023-02-15T07:09:00.964Z,3.30
2023-02-15T07:10:00.898Z,3.50
2023-02-15T07:11:00.898Z,3.20
2023-02-15T07:12:00.901Z,4.50
2023-02-15T07:13:00.855Z,4.80
2023-02-15T07:14:00.886Z,4.60
2023-02-15T07:15:00.896Z,4.10
2023-02-15T07:16:01.303Z,3.60
2023-02-15T07:17:00.808Z,3.80
2023-02-15T07:18:00.814Z,4.10
2023-02-15T07:19:00.828Z,3.20
2023-02-15T07:20:00.802Z,5.20
2023-02-15T07:21:00.823Z,5.30
2023-02-15T07:22:00.806Z,4.60
2023-02-15T07:23:00.759Z,5.80
2023-02-15T07:24:00.732Z,4.60
2023-02-15T07:25:00.725Z,5.80
2023-02-15T07:26:01.217Z,5.80
2023-02-15T07:27:00.743Z,5.40
2023-02-15T07:28:00.693Z,4.80
2023-02-15T07:29:01.148Z,5.00
2023-02-15T07:30:00.733Z,5.10
2023-02-15T07:31:00.705Z,5.00
2023-02-15T07:32:00.736Z,3.50
2023-02-15T07:33:02.791Z,3.30
2023-02-15T07:34:00.688Z,3.30
2023-02-15T07:35:00.644Z,3.30
2023-02-15T07:36:00.955Z,3.90
2023-02-15T07:37:00.670Z,5.30
2023-02-15T07:38:00.673Z,4.30
2023-02-15T07:39:00.671Z,4.50
2023-02-15T07:40:00.590Z,4.60
2023-02-15T07:41:00.561Z,3.60
2023-02-15T07:42:00.570Z,3.40
2023-02-15T07:43:00.574Z,3.30
2023-02-15T07:44:00.555Z,4.30
2023-02-15T07:45:00.549Z,3.30
2023-02-15T07:46:00.921Z,4.20
2023-02-15T07:47:00.516Z,3.90
2023-02-15T07:48:00.490Z,4.40
2023-02-15T07:49:00.496Z,3.30
2023-02-15T07:50:00.545Z,4.10
2023-02-15T07:51:00.483Z,3.40
2023-02-15T07:52:00.459Z,4.20
2023-02-15T07:53:00.459Z,4.10
2023-02-15T07:54:00.460Z,5.40
2023-02-15T07:55:00.548Z,4.50
2023-02-15T07:56:00.816Z,6.40
2023-02-15T07:57:00.402Z,3.80
2023-02-15T07:58:00.397Z,3.00
2023-02-15T07:59:00.398Z,4.10
2023-02-15T08:00:00.364Z,2.80
2023-02-15T08:01:00.376Z,3.60
2023-02-15T08:02:00.369Z,4.50
2023-02-15T08:03:00.498Z,3.30
2023-02-15T08:04:01.099Z,3.50
2023-02-15T08:05:00.330Z,3.50
2023-02-15T08:06:00.783Z,3.00
2023-02-15T08:07:00.307Z,3.00
2023-02-15T08:08:00.303Z,3.30
2023-02-15T08:09:00.288Z,4.80
2023-02-15T08:10:00.311Z,2.80
2023-02-15T08:11:00.271Z,4.70
2023-02-15T08:12:00.246Z,4.10
2023-02-15T08:13:00.275Z,3.30
2023-02-15T08:14:00.471Z,4.10
2023-02-15T08:15:00.225Z,2.60
2023-02-15T08:16:00.644Z,3.60
2023-02-15T08:17:00.220Z,3.70
2023-02-15T08:18:00.224Z,4.00
2023-02-15T08:19:00.195Z,5.00
2023-02-15T08:20:00.182Z,4.10
2023-02-15T08:21:00.168Z,3.80
2023-02-15T08:22:00.171Z,3.90
2023-02-15T08:23:00.157Z,4.80
2023-02-15T08:24:00.127Z,3.60
2023-02-15T08:25:00.157Z,5.20
2023-02-15T08:26:00.540Z,5.30
2023-02-15T08:27:00.128Z,4.30
2023-02-15T08:28:00.101Z,3.30
2023-02-15T08:29:00.112Z,5.00
2023-02-15T08:30:00.463Z,4.10
2023-02-15T08:31:00.401Z,4.30
2023-02-15T08:32:00.187Z,4.50
2023-02-15T08:33:00.035Z,4.40
2023-02-15T08:34:00.125Z,3.50
2023-02-15T08:35:00.041Z,5.00
2023-02-15T08:36:00.280Z,4.60
2023-02-15T08:37:00.001Z,3.80
2023-02-15T08:37:59.980Z,3.20
2023-02-15T08:38:59.982Z,4.90
2023-02-15T08:39:59.965Z,5.30
2023-02-15T08:41:00.265Z,4.40
2023-02-15T08:42:00.397Z,4.20
2023-02-15T08:43:00.000Z,4.20
2023-02-15T08:43:59.920Z,4.30
2023-02-15T08:44:59.936Z,5.40
2023-02-15T08:46:00.112Z,3.70
2023-02-15T08:46:59.918Z,3.90
2023-02-15T08:47:59.877Z,5.30
2023-02-15T08:48:59.892Z,3.70
2023-02-15T08:49:59.875Z,4.10
2023-02-15T08:51:00.165Z,5.00
2023-02-15T08:51:59.841Z,3.80
2023-02-15T08:52:59.845Z,5.40
2023-02-15T08:53:59.824Z,4.30
2023-02-15T08:54:59.829Z,6.40
2023-02-15T08:55:59.807Z,4.40
2023-02-15T08:56:59.854Z,4.10
2023-02-15T08:57:59.806Z,5.20
2023-02-15T08:58:59.790Z,5.00
2023-02-15T08:59:59.752Z,5.20
2023-02-15T09:01:00.070Z,4.60
2023-02-15T09:01:59.756Z,4.90
2023-02-15T09:02:59.735Z,5.10
2023-02-15T09:03:59.716Z,4.80
2023-02-15T09:04:59.733Z,5.40
2023-02-15T09:05:59.776Z,5.70
2023-02-15T09:06:59.699Z,4.30
2023-02-15T09:07:59.687Z,5.90
2023-02-15T09:08:59.698Z,5.80
2023-02-15T09:09:59.660Z,4.50
2023-02-15T09:11:00.094Z,4.10
2023-02-15T09:11:59.870Z,4.40
2023-02-15T09:12:59.643Z,5.10
2023-02-15T09:13:59.614Z,5.40
2023-02-15T09:14:59.610Z,5.20
2023-02-15T09:15:59.582Z,3.40
2023-02-15T09:16:59.961Z,6.00
2023-02-15T09:17:59.569Z,5.30
2023-02-15T09:18:59.618Z,4.60
2023-02-15T09:19:59.552Z,5.10
2023-02-15T09:20:59.995Z,3.90
2023-02-15T09:21:59.564Z,5.50
2023-02-15T09:23:00.019Z,6.10
2023-02-15T09:23:59.505Z,4.90
2023-02-15T09:24:59.530Z,6.20
2023-02-15T09:25:59.479Z,7.50
2023-02-15T09:26:59.502Z,4.10
2023-02-15T09:27:59.479Z,5.80
2023-02-15T09:28:59.470Z,4.40
2023-02-15T09:29:59.556Z,5.60
2023-02-15T09:30:59.550Z,3.10
2023-02-15T09:32:00.390Z,5.30
2023-02-15T09:32:59.411Z,4.30
2023-02-15T09:33:59.426Z,4.10
2023-02-15T09:34:59.414Z,3.90
2023-02-15T09:35:59.421Z,4.10
2023-02-15T09:36:59.402Z,5.20
2023-02-15T09:37:59.367Z,4.60
2023-02-15T09:38:59.366Z,4.30
2023-02-15T09:39:59.335Z,5.00
2023-02-15T09:40:59.323Z,4.50
2023-02-15T09:41:59.347Z,4.50
2023-02-15T09:42:59.308Z,5.30
2023-02-15T09:43:59.280Z,4.80
2023-02-15T09:44:59.322Z,4.40
2023-02-15T09:45:59.311Z,5.50
2023-02-15T09:46:59.285Z,3.30
2023-02-15T09:47:59.255Z,5.10
2023-02-15T09:48:59.317Z,5.60
2023-02-15T09:49:59.242Z,5.70
2023-02-15T09:50:59.308Z,4.20
2023-02-15T09:51:59.192Z,4.80
2023-02-15T09:52:59.204Z,4.10
2023-02-15T09:53:59.236Z,4.10
2023-02-15T09:54:59.195Z,4.30
2023-02-15T09:55:59.380Z,3.80
2023-02-15T09:56:59.151Z,4.00
2023-02-15T09:57:59.139Z,4.10
2023-02-15T09:58:59.176Z,4.30
2023-02-15T09:59:59.121Z,4.40
2023-02-15T10:00:59.194Z,4.60
2023-02-15T10:01:59.122Z,4.00
2023-02-15T10:02:59.117Z,4.90
2023-02-15T10:03:59.074Z,5.10
2023-02-15T10:04:59.115Z,2.70
2023-02-15T10:05:59.138Z,4.40
2023-02-15T10:06:59.091Z,4.20
2023-02-15T10:07:59.130Z,5.30
2023-02-15T10:08:59.042Z,5.20
2023-02-15T10:09:59.070Z,4.80
2023-02-15T10:10:59.043Z,4.60
2023-02-15T10:11:59.003Z,4.40
2023-02-15T10:12:59.154Z,5.00
2023-02-15T10:13:58.969Z,4.30
2023-02-15T10:14:58.973Z,4.40
2023-02-15T10:15:58.943Z,3.50
2023-02-15T10:16:59.101Z,4.50
2023-02-15T10:17:58.923Z,5.70
2023-02-15T10:18:58.934Z,4.90
2023-02-15T10:19:58.931Z,5.10
2023-02-15T10:20:58.894Z,4.10
2023-02-15T10:21:58.885Z,5.00
2023-02-15T10:22:58.885Z,4.60
2023-02-15T10:23:58.882Z,4.70
2023-02-15T10:24:58.870Z,3.40
2023-02-15T10:25:58.835Z,4.10
2023-02-15T10:26:58.827Z,4.20
2023-02-15T10:27:58.825Z,4.70
2023-02-15T10:28:58.829Z,4.00
2023-02-15T10:29:58.816Z,5.30
2023-02-15T10:30:58.889Z,4.40
2023-02-15T10:31:58.901Z,5.00
2023-02-15T10:32:58.771Z,4.60
2023-02-15T10:33:58.813Z,4.30
2023-02-15T10:34:58.747Z,3.90
2023-02-15T10:35:58.744Z,3.40
2023-02-15T10:36:58.723Z,5.00
2023-02-15T10:37:58.723Z,4.20
2023-02-15T10:38:58.702Z,5.40
2023-02-15T10:39:58.733Z,4.30
2023-02-15T10:40:58.671Z,3.60
2023-02-15T10:41:58.687Z,4.10
2023-02-15T10:42:58.764Z,4.00
2023-02-15T10:43:58.699Z,4.10
2023-02-15T10:44:58.640Z,4.10
2023-02-15T10:45:58.657Z,3.90
2023-02-15T10:46:58.624Z,3.70
2023-02-15T10:47:58.615Z,4.60
2023-02-15T10:48:58.586Z,3.70
2023-02-15T10:49:58.668Z,4.30
2023-02-15T10:50:58.638Z,4.60
2023-02-15T10:51:58.586Z,4.00
2023-02-15T10:52:58.561Z,4.20
2023-02-15T10:53:58.594Z,4.40
2023-02-15T10:54:58.524Z,4.00
2023-02-15T10:55:58.542Z,3.30
2023-02-15T10:56:58.505Z,4.80
2023-02-15T10:58:00.348Z,3.80
2023-02-15T10:58:58.486Z,3.70
2023-02-15T10:59:58.473Z,4.00
2023-02-15T11:00:58.485Z,4.20
2023-02-15T11:01:58.484Z,3.40
2023-02-15T11:02:58.434Z,4.00
2023-02-15T11:03:58.440Z,4.30
2023-02-15T11:04:58.495Z,5.20
2023-02-15T11:05:58.473Z,4.60
2023-02-15T11:06:58.406Z,4.10
2023-02-15T11:07:58.400Z,3.00
2023-02-15T11:08:58.372Z,4.20
2023-02-15T11:09:58.375Z,4.70
2023-02-15T11:10:58.410Z,4.20
2023-02-15T11:11:58.367Z,3.70
2023-02-15T11:12:58.418Z,3.70
2023-02-15T11:13:58.367Z,3.20
2023-02-15T11:14:58.328Z,4.70
2023-02-15T11:15:58.452Z,4.10
2023-02-15T11:16:58.634Z,3.50
2023-02-15T11:17:58.282Z,4.90
2023-02-15T11:18:58.280Z,3.70
2023-02-15T11:19:58.279Z,4.70
2023-02-15T11:20:58.281Z,3.90
2023-02-15T11:21:58.688Z,4.20
2023-02-15T11:22:58.237Z,3.40
2023-02-15T11:23:58.245Z,3.90
2023-02-15T11:24:58.361Z,3.40
2023-02-15T11:25:58.197Z,4.00
2023-02-15T11:26:58.248Z,3.80
2023-02-15T11:27:58.205Z,2.90
2023-02-15T11:28:58.220Z,4.70
2023-02-15T11:29:58.463Z,3.80
2023-02-15T11:30:58.342Z,4.30
2023-02-15T11:31:58.240Z,4.70
2023-02-15T11:32:58.140Z,3.80
2023-02-15T11:33:58.404Z,4.50
2023-02-15T11:34:58.130Z,4.50
2023-02-15T11:35:58.216Z,4.40
2023-02-15T11:36:58.130Z,4.00
2023-02-15T11:37:58.215Z,4.70
2023-02-15T11:38:58.067Z,4.30
2023-02-15T11:39:58.077Z,4.10
2023-02-15T11:40:58.046Z,4.30
2023-02-15T11:41:58.042Z,4.10
2023-02-15T11:42:58.024Z,3.70
2023-02-15T11:43:58.062Z,3.60
2023-02-15T11:44:58.011Z,3.80
2023-02-15T11:45:58.012Z,4.40
2023-02-15T11:46:58.138Z,4.60
2023-02-15T11:47:57.979Z,4.70
2023-02-15T11:48:57.965Z,3.80
2023-02-15T11:49:57.983Z,4.10
2023-02-15T11:50:57.957Z,4.10
2023-02-15T11:51:57.920Z,3.20
2023-02-15T11:52:57.923Z,4.80
2023-02-15T11:53:57.916Z,4.30
2023-02-15T11:54:57.882Z,2.70
2023-02-15T11:55:57.958Z,3.60
2023-02-15T11:56:57.862Z,4.20
2023-02-15T11:57:57.861Z,3.90
2023-02-15T11:58:57.896Z,4.30
2023-02-15T11:59:57.888Z,4.20
2023-02-15T12:00:57.839Z,4.60
2023-02-15T12:01:57.825Z,4.00
2023-02-15T12:02:57.824Z,5.80
2023-02-15T12:03:57.873Z,3.80
2023-02-15T12:04:57.806Z,4.40
2023-02-15T12:05:57.790Z,3.60
2023-02-15T12:07:02.208Z,5.00
2023-02-15T12:07:57.824Z,4.60
2023-02-15T12:08:57.736Z,4.70
2023-02-15T12:09:57.862Z,4.80
2023-02-15T12:10:57.760Z,4.30
2023-02-15T12:11:57.723Z,5.80
2023-02-15T12:12:57.697Z,3.80
2023-02-15T12:13:57.704Z,3.70
2023-02-15T12:14:57.711Z,3.90
2023-02-15T12:15:57.729Z,3.80
2023-02-15T12:16:57.656Z,3.30
2023-02-15T12:17:57.673Z,4.10
2023-02-15T12:18:57.713Z,3.90
2023-02-15T12:19:57.654Z,4.70
2023-02-15T12:20:57.615Z,4.20
2023-02-15T12:21:57.656Z,4.60
2023-02-15T12:22:57.604Z,4.30
2023-02-15T12:23:57.597Z,4.00
2023-02-15T12:24:57.578Z,4.30
2023-02-15T12:25:57.567Z,4.20
2023-02-15T12:26:57.579Z,4.30
2023-02-15T12:27:57.579Z,4.40
2023-02-15T12:28:57.583Z,4.00
2023-02-15T12:29:57.609Z,3.80
2023-02-15T12:30:57.559Z,3.70
2023-02-15T12:31:57.604Z,4.30
2023-02-15T12:32:57.484Z,3.30
2023-02-15T12:33:57.478Z,2.40
2023-02-15T12:34:59.352Z,3.70
2023-02-15T12:35:57.555Z,4.30
2023-02-15T12:36:57.629Z,4.20
2023-02-15T12:37:57.428Z,3.50
2023-02-15T12:38:59.445Z,3.90
2023-02-15T12:39:57.444Z,4.50
2023-02-15T12:40:57.414Z,4.20
2023-02-15T12:41:57.554Z,4.40
